Terminal Aerodrome Forecast
Issued by NWS Sioux Falls, SD

Home | Current Version | Previous Version | Text Only | Print | Product List | Glossary On
Versions: 1 2 3 4 5 6 7 8 9 10 11 12 13 14 15 16 17 18 19 20 21 22 23 24 25 26 27 28 29 30 31 32 33
000
FTUS43 KFSD 011723
TAFSUX
TAF
KSUX 011723Z 0118/0218 30008KT P6SM SCT060
     FM020100 27004KT P6SM SCT120
     FM020300 24006KT P6SM -SHRA BKN050
     FM020500 26006KT P6SM SKC=

USA.gov is the U.S. government's official web portal to all federal, state and local government web resources and services.